N6HKD Fairfield CT US current weather conditions

sailwx.info

Wind from 087 at 1 knots gusting 7

Air temperature 22.2° C
Dewpoint 19.8° C

Last reported at 2020-Aug-08 05:00 UTC.
Time now 2020-Aug-08 05:58 UTC

Location: N 41°09' W 073°14'.
View on Google Maps.

See reports from other nearby stations

  
Tides and Currents Weather Stations Pressure Air Temp Water Temp Dewpoint Dewpoint Depression Visibility Wind Speed Wind Dir Waves Ship Positions
date/time (UTC)wind fromknots sea level pressurealtimeterstation pressurevisibilityair tempwater tempwave heightnotes
2020-Aug-08 05:00 087 1 gusting 7 22.2
2020-Aug-08 04:45 089 22.2
2020-Aug-08 04:30 089 22.2
2020-Aug-08 04:15 090 22.2
2020-Aug-08 04:00 093 22.2
2020-Aug-08 03:45 091 22.2
2020-Aug-08 03:30 083 22.2
2020-Aug-08 03:15 105 1 gusting 6 22.2
2020-Aug-08 03:00 116 0 gusting 6 22.2
2020-Aug-08 02:45 117 22.2
2020-Aug-08 02:30 117 22.2
2020-Aug-08 02:15 118 22.2
2020-Aug-08 02:00 118 22.2
2020-Aug-08 01:45 118 22.2
2020-Aug-08 01:30 118 22.2
2020-Aug-08 01:15 118 22.2
2020-Aug-08 01:00 119 0 gusting 6 22.2
2020-Aug-08 00:45 119 2 gusting 6 22.2
2020-Aug-08 00:30 120 0 gusting 6 22.2
2020-Aug-08 00:15 123 6 gusting 9 22.8
2020-Aug-08 00:00 109 6 gusting 8 22.8
2020-Aug-07 23:47 102 2 gusting 6 22.8
2020-Aug-07 23:32 102 1 gusting 7 22.8
2020-Aug-07 23:17 103 6 gusting 8 22.8
2020-Aug-07 23:02 099 3 gusting 6 22.8
2020-Aug-07 22:47 103 4 gusting 7 22.8
2020-Aug-07 22:32 103 5 gusting 6 22.8
2020-Aug-07 22:17 104 6 gusting 7 22.8
2020-Aug-07 22:03 106 6 gusting 8 22.8
2020-Aug-07 21:47 102 2 gusting 7 23.3
2020-Aug-07 21:32 094 1 gusting 8 23.3
2020-Aug-07 21:16 100 4 gusting 8 23.3
2020-Aug-07 21:02 094 4 gusting 9 23.3
2020-Aug-07 20:46 089 1 gusting 7 23.3
2020-Aug-07 20:31 089 5 gusting 9 23.3
2020-Aug-07 20:16 099 6 gusting 8 23.3
2020-Aug-07 20:01 100 3 gusting 7 23.3
2020-Aug-07 19:46 100 6 gusting 9 23.3
2020-Aug-07 19:31 103 4 gusting 8 23.3
2020-Aug-07 19:17 103 6 gusting 11 23.3
2020-Aug-07 19:01 103 6 gusting 8 23.3
2020-Aug-07 18:46 107 6 gusting 8 23.3
2020-Aug-07 18:31 102 3 gusting 8 23.3
2020-Aug-07 18:16 102 5 gusting 7 23.3
2020-Aug-07 18:01 103 6 gusting 9 23.3
2020-Aug-07 17:46 100 6 gusting 8 23.3
2020-Aug-07 17:31 100 5 gusting 8 23.3
2020-Aug-07 17:16 110 6 gusting 8 23.9
2020-Aug-07 17:01 113 5 gusting 9 23.9
2020-Aug-07 16:46 106 6 gusting 8 23.9
2020-Aug-07 16:31 099 0 gusting 6 23.3
2020-Aug-07 16:15 100 1 gusting 6 23.3
2020-Aug-07 16:01 094 2 gusting 6 23.3
2020-Aug-07 15:45 067 4 gusting 8 23.3
2020-Aug-07 15:30 093 3 gusting 7 23.3
2020-Aug-07 15:16 054 1 gusting 6 23.3
2020-Aug-07 15:01 083 1 gusting 6 23.3
2020-Aug-07 14:46 077 0 gusting 6 22.8
2020-Aug-07 14:30 073 1 gusting 6 22.2
2020-Aug-07 14:16 062 21.7
2020-Aug-07 14:00 040 0 gusting 6 21.1
2020-Aug-07 13:45 047 21.1
2020-Aug-07 13:31 050 20.6
2020-Aug-07 13:16 035 20.6
2020-Aug-07 13:00 033 0 gusting 5 20.0
2020-Aug-07 12:45 062 20.0
2020-Aug-07 12:31 062 20.0
2020-Aug-07 12:16 063 0 gusting 3 20.0
2020-Aug-07 12:00 063 20.6
2020-Aug-07 11:45 063 20.6
2020-Aug-07 11:31 063 20.6
2020-Aug-07 11:15 064 20.6
2020-Aug-07 11:00 064 20.6
2020-Aug-07 10:45 064 1 gusting 4 20.6
2020-Aug-07 10:30 079 0 gusting 6 20.6
2020-Aug-07 10:15 150 21.1
2020-Aug-07 10:00 150 21.1
2020-Aug-07 09:45 150 21.1
2020-Aug-07 09:30 150 21.1
2020-Aug-07 09:15 150 21.1
2020-Aug-07 09:00 150 20.6
2020-Aug-07 08:45 150 21.1
2020-Aug-07 08:30 150 21.1
2020-Aug-07 08:15 150 21.1
2020-Aug-07 08:00 150 21.1
2020-Aug-07 07:32 150 20.6
2020-Aug-07 07:17 150 20.6
2020-Aug-07 07:01 150 20.6
2020-Aug-07 06:46 150 21.1
2020-Aug-07 06:32 150 21.1
2020-Aug-07 06:16 150 21.1
2020-Aug-07 06:02 150 21.1
2020-Aug-07 05:46 150 21.1
2020-Aug-07 05:33 150 21.7
2020-Aug-07 05:16 150 21.7
2020-Aug-07 05:00 150 21.7
2020-Aug-07 04:46 150 21.7
2020-Aug-07 04:31 150 21.7
2020-Aug-07 04:16 150 21.7
2020-Aug-07 04:00 150 21.7
2020-Aug-07 03:45 150 21.7
2020-Aug-07 03:31 150 21.7
2020-Aug-07 03:15 150 21.7
2020-Aug-07 03:01 150 21.7
2020-Aug-07 02:46 150 22.2
2020-Aug-07 02:30 150 22.2
2020-Aug-07 02:16 150 22.2
2020-Aug-07 02:00 150 22.2
2020-Aug-07 01:46 150 22.2
2020-Aug-07 01:32 150 22.2
2020-Aug-07 01:16 150 22.8
2020-Aug-07 01:01 150 22.8
2020-Aug-07 00:46 150 22.8
2020-Aug-07 00:31 150 22.8
2020-Aug-07 00:16 150 22.8
2020-Aug-07 00:01 150 23.3
2020-Aug-06 23:45 150 23.3
2020-Aug-06 23:31 150 23.3
2020-Aug-06 23:16 150 23.3
2020-Aug-06 23:01 150 3 gusting 6 23.3
2020-Aug-06 22:45 149 4 gusting 6 23.3
2020-Aug-06 22:31 152 4 gusting 8 23.3
2020-Aug-06 22:15 152 4 gusting 8 23.9
2020-Aug-06 22:00 129 3 gusting 6 24.4
2020-Aug-06 21:46 129 24.4
2020-Aug-06 21:32 129 24.4
2020-Aug-06 21:15 129 24.4
2020-Aug-06 21:00 129 24.4
2020-Aug-06 20:46 129 23.9
2020-Aug-06 20:30 129 23.9
2020-Aug-06 20:15 129 23.9
2020-Aug-06 20:00 129 23.9
2020-Aug-06 19:45 129 3 gusting 4 23.9
2020-Aug-06 19:30 129 23.9
2020-Aug-06 19:16 129 23.9
2020-Aug-06 19:00 129 0 gusting 3 23.3
2020-Aug-06 18:45 129 5 gusting 7 23.3
2020-Aug-06 18:31 125 6 gusting 7 23.3
2020-Aug-06 18:15 114 5 gusting 9 23.9
2020-Aug-06 18:00 112 6 gusting 9 24.4
2020-Aug-06 17:45 114 3 gusting 6 23.9
2020-Aug-06 17:31 103 23.9
2020-Aug-06 17:16 102 6 gusting 8 23.9
2020-Aug-06 17:00 102 4 gusting 6 23.9
2020-Aug-06 16:46 102 4 gusting 8 24.4
2020-Aug-06 16:30 100 6 gusting 8 24.4
2020-Aug-06 16:15 099 2 gusting 7 24.4
2020-Aug-06 16:00 102 1 gusting 6 24.4
2020-Aug-06 15:45 104 4 gusting 7 23.9
2020-Aug-06 15:15 104 6 gusting 8 23.9
2020-Aug-06 15:00 093 4 gusting 7 23.9
2020-Aug-06 14:45 073 3 gusting 6 23.9
2020-Aug-06 14:30 110 2 gusting 4 23.3
2020-Aug-06 14:15 110 22.8
2020-Aug-06 14:00 110 22.8
2020-Aug-06 13:45 109 2 gusting 4 22.8
2020-Aug-06 13:30 106 0 gusting 6 22.8
2020-Aug-06 13:15 107 1 gusting 4 22.8
2020-Aug-06 13:00 110 1 gusting 4 23.3
2020-Aug-06 12:46 052 23.3
2020-Aug-06 12:32 053 22.8
2020-Aug-06 12:16 066 0 gusting 6 22.2
2020-Aug-06 12:02 052 22.2
2020-Aug-06 11:46 025 0 gusting 6 21.1
2020-Aug-06 11:31 041 0 gusting 8 20.6
2020-Aug-06 11:16 040 2 gusting 8 20.0
2020-Aug-06 11:02 054 1 gusting 7 19.4
2020-Aug-06 10:47 039 1 gusting 5 19.4
2020-Aug-06 10:31 354 18.9
2020-Aug-06 10:16 313 18.3
2020-Aug-06 10:00 313 18.3
2020-Aug-06 09:46 313 18.3
2020-Aug-06 09:31 313 18.3
2020-Aug-06 09:15 313 18.9
2020-Aug-06 09:01 313 18.9
2020-Aug-06 08:46 313 18.9
2020-Aug-06 08:31 313 18.9